Time;durP1;ratioP1;P1;durP2;ratioP2;P2;SDS_P1;SDS_P2;PMS_P1;PMS_P2;Temp;Humidity;BMP_temperature;BMP_pressure;BME280_temperature;BME280_humidity;BME280_pressure;Samples;Min_cycle;Max_cycle;Signal;HPM_P1;HPM_P2
2022/09/17 00:04:50;;;;;;;;;;;;;;;21.52;49.11;95157.69;10448720;28;2734;-49
2022/09/17 00:09:51;;;;;;;;;;;;;;;21.52;48.94;95159.53;10454676;28;2602;-48
2022/09/17 00:14:51;;;;;;;;;;;;;;;21.52;48.90;95159.53;10450253;28;2622;-48
2022/09/17 00:19:52;;;;;;;;;;;;;;;21.51;48.83;95160.63;10456479;28;2577;-49
2022/09/17 00:24:52;;;;;;;;;;;;;;;21.49;49.06;95155.66;10468882;28;2621;-45
2022/09/17 00:29:52;;;;;;;;;;;;;;;21.49;49.00;95154.84;10462437;28;2688;-48
2022/09/17 00:34:53;;;;;;;;;;;;;;;21.49;48.91;95149.59;10466887;28;2610;-48
2022/09/17 00:39:53;;;;;;;;;;;;;;;21.49;49.21;95158.28;10469346;28;2613;-48
2022/09/17 00:44:54;;;;;;;;;;;;;;;21.48;49.02;95169.09;10465222;28;2637;-48
2022/09/17 00:49:56;;;;;;;;;;;;;;;21.47;49.03;95170.97;10466767;28;2649;-48
2022/09/17 00:55:16;;;;;;;;;;;;;;;21.46;48.88;95166.75;10457039;28;2596;-48
2022/09/17 01:00:23;;;;;;;;;;;;;;;21.47;49.25;95172.81;10457563;28;2589;-48
2022/09/17 01:05:32;;;;;;;;;;;;;;;21.46;48.98;95165.97;10457558;28;2699;-48
2022/09/17 01:10:35;;;;;;;;;;;;;;;21.45;49.09;95164.44;10494216;28;2996;-48
2022/09/17 01:15:59;;;;;;;;;;;;;;;21.45;48.89;95180.25;10464201;28;2616;-48
2022/09/17 01:21:18;;;;;;;;;;;;;;;21.45;48.90;95182.88;10466846;28;2598;-48
2022/09/17 01:26:32;;;;;;;;;;;;;;;21.44;48.88;95173.41;10462065;28;2716;-48
2022/09/17 01:31:37;;;;;;;;;;;;;;;21.44;49.28;95173.41;10494369;28;2577;-48
2022/09/17 01:36:41;;;;;;;;;;;;;;;21.42;48.98;95171.06;10456380;28;2609;-48
2022/09/17 01:41:52;;;;;;;;;;;;;;;21.44;48.88;95173.41;10460653;28;2684;-49
2022/09/17 01:46:53;;;;;;;;;;;;;;;21.43;49.25;95166.56;10490035;28;2548;-48
2022/09/17 01:51:53;;;;;;;;;;;;;;;21.42;48.97;95176.34;10492146;28;2624;-48
2022/09/17 01:56:55;;;;;;;;;;;;;;;21.42;49.13;95165.78;10463225;28;2626;-48
2022/09/17 02:01:58;;;;;;;;;;;;;;;21.41;48.99;95161.56;10451183;28;2644;-48
2022/09/17 02:07:00;;;;;;;;;;;;;;;21.40;48.85;95154.75;10494536;28;2534;-48
2022/09/17 02:12:02;;;;;;;;;;;;;;;21.40;49.02;95167.16;10491361;28;2666;-48
2022/09/17 02:17:07;;;;;;;;;;;;;;;21.39;48.92;95166.34;10466373;28;2541;-48
2022/09/17 02:22:13;;;;;;;;;;;;;;;21.39;48.93;95166.34;10457395;28;2668;-48
2022/09/17 02:27:13;;;;;;;;;;;;;;;21.38;48.89;95158.75;10461812;28;2557;-48
2022/09/17 02:32:13;;;;;;;;;;;;;;;21.38;49.09;95153.47;10467331;28;2542;-48
2022/09/17 02:37:14;;;;;;;;;;;;;;;21.37;48.95;95146.66;10465252;28;2604;-48
2022/09/17 02:42:16;;;;;;;;;;;;;;;21.37;48.72;95141.38;10465099;28;2620;-48
2022/09/17 02:47:32;;;;;;;;;;;;;;;21.36;48.82;95140.59;10466257;28;2609;-48
2022/09/17 02:52:56;;;;;;;;;;;;;;;21.36;49.00;95130.03;10455215;28;2593;-46
2022/09/17 02:58:05;;;;;;;;;;;;;;;21.36;49.01;95119.50;10455892;28;2570;-48
2022/09/17 03:03:10;;;;;;;;;;;;;;;21.35;48.79;95114.53;10484592;28;2652;-48
2022/09/17 03:08:13;;;;;;;;;;;;;;;21.35;48.84;95117.94;10458405;28;2624;-48
2022/09/17 03:13:14;;;;;;;;;;;;;;;21.33;48.74;95106.91;10489526;28;2551;-47
2022/09/17 03:18:14;;;;;;;;;;;;;;;21.34;48.85;95110.31;10460208;28;2641;-48
2022/09/17 03:23:15;;;;;;;;;;;;;;;21.33;48.76;95106.13;10458673;28;2597;-48
2022/09/17 03:28:15;;;;;;;;;;;;;;;21.33;48.74;95112.16;10464011;28;2637;-48
2022/09/17 03:33:16;;;;;;;;;;;;;;;21.33;48.70;95114.03;10459512;28;2597;-48
2022/09/17 03:38:16;;;;;;;;;;;;;;;21.31;48.73;95110.91;10455655;28;2755;-48
2022/09/17 03:43:16;;;;;;;;;;;;;;;21.31;48.86;95113.56;10454263;28;2632;-48
2022/09/17 03:48:17;;;;;;;;;;;;;;;21.31;48.83;95111.69;10465333;28;2592;-48
2022/09/17 03:53:17;;;;;;;;;;;;;;;21.30;48.77;95109.34;10462624;28;2732;-48
2022/09/17 03:58:17;;;;;;;;;;;;;;;21.30;48.65;95115.41;10455525;28;2676;-48
2022/09/17 04:03:18;;;;;;;;;;;;;;;21.30;48.75;95114.63;10443488;28;2601;-48
2022/09/17 04:08:18;;;;;;;;;;;;;;;21.29;48.91;95115.69;10457138;28;2663;-49
2022/09/17 04:13:18;;;;;;;;;;;;;;;21.29;48.62;95118.34;10457473;28;2570;-47
2022/09/17 04:18:19;;;;;;;;;;;;;;;21.27;48.71;95121.25;10456731;28;2628;-48
2022/09/17 04:23:19;;;;;;;;;;;;;;;21.28;48.58;95109.66;10476806;28;2578;-48
2022/09/17 04:28:21;;;;;;;;;;;;;;;21.27;48.46;95097.53;10462952;28;2632;-48
2022/09/17 04:33:22;;;;;;;;;;;;;;;21.26;48.60;95100.47;10455738;28;2692;-48
2022/09/17 04:38:22;;;;;;;;;;;;;;;21.25;48.65;95114.69;10456625;28;2957;-48
2022/09/17 04:43:22;;;;;;;;;;;;;;;21.25;48.48;95123.41;10458170;28;2566;-48
2022/09/17 04:48:22;;;;;;;;;;;;;;;21.25;48.63;95136.56;10458978;28;2606;-48
2022/09/17 04:53:23;;;;;;;;;;;;;;;21.25;48.73;95152.38;10459087;28;2564;-48
2022/09/17 04:58:23;;;;;;;;;;;;;;;21.25;48.72;95176.13;10455604;28;2619;-48
2022/09/17 05:03:23;;;;;;;;;;;;;;;21.24;48.53;95197.50;10445286;28;2604;-48
2022/09/17 05:08:24;;;;;;;;;;;;;;;21.23;48.43;95211.75;10461871;28;2535;-48
2022/09/17 05:13:24;;;;;;;;;;;;;;;21.22;48.24;95223.38;10463105;28;2586;-48
2022/09/17 05:18:25;;;;;;;;;;;;;;;21.22;48.34;95224.16;10467092;28;2657;-48
2022/09/17 05:23:25;;;;;;;;;;;;;;;21.21;48.24;95237.59;10467632;28;2622;-48
2022/09/17 05:28:28;;;;;;;;;;;;;;;21.20;48.60;95242.13;10457297;28;2609;-48
2022/09/17 05:33:28;;;;;;;;;;;;;;;21.20;48.25;95265.06;10460737;28;2620;-48
2022/09/17 05:38:28;;;;;;;;;;;;;;;21.19;48.26;95272.16;10462046;28;2655;-47
2022/09/17 05:43:28;;;;;;;;;;;;;;;21.19;48.27;95274.00;10464820;28;2628;-49
2022/09/17 05:48:29;;;;;;;;;;;;;;;21.18;48.22;95275.88;10466177;28;2592;-49
2022/09/17 05:53:29;;;;;;;;;;;;;;;21.19;48.40;95284.56;10469941;28;2606;-48
2022/09/17 05:58:30;;;;;;;;;;;;;;;21.17;48.15;95284.06;10457139;28;2646;-48
2022/09/17 06:03:31;;;;;;;;;;;;;;;21.17;48.15;95278.78;10458431;28;2636;-48
2022/09/17 06:08:34;;;;;;;;;;;;;;;21.16;48.03;95274.59;10462841;28;2630;-48
2022/09/17 06:13:34;;;;;;;;;;;;;;;21.15;48.21;95270.38;10460957;28;2521;-48
2022/09/17 06:18:34;;;;;;;;;;;;;;;21.15;48.10;95271.19;10443427;28;2692;-48
2022/09/17 06:23:35;;;;;;;;;;;;;;;21.15;48.29;95265.13;10440036;28;2608;-48
2022/09/17 06:28:36;;;;;;;;;;;;;;;21.14;48.40;95274.09;10443532;28;2547;-48
2022/09/17 06:33:36;;;;;;;;;;;;;;;21.14;48.15;95274.09;10436268;28;2704;-48
2022/09/17 06:38:36;;;;;;;;;;;;;;;21.13;48.13;95275.94;10442064;28;2926;-47
2022/09/17 06:43:37;;;;;;;;;;;;;;;21.14;48.31;95274.09;10443998;28;2616;-48
2022/09/17 06:48:38;;;;;;;;;;;;;;;21.13;48.38;95275.94;10435113;28;2600;-48
2022/09/17 06:53:38;;;;;;;;;;;;;;;21.13;47.94;95272.53;10435778;28;2883;-48
2022/09/17 06:58:42;;;;;;;;;;;;;;;21.13;47.93;95270.69;10430831;28;3256;-48
2022/09/17 07:03:48;;;;;;;;;;;;;;;21.13;47.93;95277.81;10436356;28;2862;-48
2022/09/17 07:08:48;;;;;;;;;;;;;;;21.13;48.19;95259.34;10436253;28;2898;-40
2022/09/17 07:13:49;;;;;;;;;;;;;;;21.13;48.22;95262.00;10433744;28;2949;-41
2022/09/17 07:18:49;;;;;;;;;;;;;;;21.12;48.13;95250.69;10427782;28;2849;-41
2022/09/17 07:23:49;;;;;;;;;;;;;;;21.12;48.31;95265.72;10429363;28;2906;-48
2022/09/17 07:28:50;;;;;;;;;;;;;;;21.13;48.23;95259.34;10434153;28;3027;-47
2022/09/17 07:33:50;;;;;;;;;;;;;;;21.14;48.32;95263.56;10429759;28;2964;-47
2022/09/17 07:38:50;;;;;;;;;;;;;;;21.14;48.61;95253.03;10442060;28;2863;-48
2022/09/17 07:43:51;;;;;;;;;;;;;;;21.16;48.52;95248.25;10430179;28;2874;-48
2022/09/17 07:48:52;;;;;;;;;;;;;;;21.15;48.28;95247.47;10440200;28;2970;-40
2022/09/17 07:53:56;;;;;;;;;;;;;;;21.19;48.01;95245.03;10438750;28;2890;-40
2022/09/17 07:58:57;;;;;;;;;;;;;;;21.18;48.14;95252.16;10437748;28;2863;-41
2022/09/17 08:03:57;;;;;;;;;;;;;;;21.19;48.23;95248.44;10427738;28;2964;-40
2022/09/17 08:08:58;;;;;;;;;;;;;;;21.19;47.93;95260.84;10435313;28;2912;-48
2022/09/17 08:13:58;;;;;;;;;;;;;;;21.18;47.97;95265.34;10431694;28;2923;-48
2022/09/17 08:18:59;;;;;;;;;;;;;;;21.20;48.06;95265.06;10430127;28;2886;-48
2022/09/17 08:23:59;;;;;;;;;;;;;;;21.20;47.82;95265.06;10426131;28;2900;-49
2022/09/17 08:28:59;;;;;;;;;;;;;;;21.19;48.10;95274.81;10444645;28;2844;-48
2022/09/17 08:34:00;;;;;;;;;;;;;;;21.20;47.83;95280.88;10436997;28;2851;-48
2022/09/17 08:39:00;;;;;;;;;;;;;;;21.20;47.62;95288.78;10443065;28;2816;-48
2022/09/17 08:44:07;;;;;;;;;;;;;;;21.18;47.68;95288.28;10439671;28;2898;-48
2022/09/17 08:49:11;;;;;;;;;;;;;;;21.17;47.63;95307.78;10444799;28;2875;-48
2022/09/17 08:54:14;;;;;;;;;;;;;;;21.15;47.74;95302.81;10436279;28;2970;-48
2022/09/17 08:59:25;;;;;;;;;;;;;;;21.15;47.74;95309.91;10474507;28;2840;-48
2022/09/17 09:04:31;;;;;;;;;;;;;;;21.14;47.89;95309.16;10424587;28;2874;-48
2022/09/17 09:09:36;;;;;;;;;;;;;;;21.13;47.92;95315.50;10431768;28;2872;-48
2022/09/17 09:14:45;;;;;;;;;;;;;;;21.10;47.87;95316.06;10442668;28;2839;-49
2022/09/17 09:19:46;;;;;;;;;;;;;;;21.11;47.67;95314.19;10469493;28;2893;-49
2022/09/17 09:24:50;;;;;;;;;;;;;;;21.09;47.66;95322.41;10434360;28;2854;-48
2022/09/17 09:30:01;;;;;;;;;;;;;;;21.07;47.87;95321.91;10469086;28;2879;-48
2022/09/17 09:35:02;;;;;;;;;;;;;;;21.08;47.68;95322.69;10473001;28;2869;-48
2022/09/17 09:40:06;;;;;;;;;;;;;;;21.06;48.06;95336.94;10472628;28;3021;-48
2022/09/17 09:45:14;;;;;;;;;;;;;;;21.06;47.66;95330.91;10441151;28;2836;-48
2022/09/17 09:50:26;;;;;;;;;;;;;;;21.05;47.93;95330.09;10438633;28;2852;-48
2022/09/17 09:55:46;;;;;;;;;;;;;;;21.05;47.71;95334.59;10436906;28;2890;-48
2022/09/17 10:00:47;;;;;;;;;;;;;;;21.04;47.72;95336.44;10438318;28;2895;-48
2022/09/17 10:05:55;;;;;;;;;;;;;;;21.04;47.94;95344.34;10442636;28;2917;-48
2022/09/17 10:10:56;;;;;;;;;;;;;;;21.03;47.78;95350.69;10440653;28;2903;-48
2022/09/17 10:15:59;;;;;;;;;;;;;;;21.02;47.51;95351.75;10436178;28;2955;-47
2022/09/17 10:21:00;;;;;;;;;;;;;;;21.03;47.87;95357.81;10442960;28;2860;-48
2022/09/17 10:26:00;;;;;;;;;;;;;;;21.02;47.75;95358.84;10432673;28;2828;-48
2022/09/17 10:31:03;;;;;;;;;;;;;;;21.01;47.59;95352.00;10438752;28;2954;-41
2022/09/17 10:36:05;;;;;;;;;;;;;;;21.01;47.62;95349.38;10436526;28;2981;-41
2022/09/17 10:41:07;;;;;;;;;;;;;;;21.00;47.80;95347.78;10431291;28;2817;-41
2022/09/17 10:46:13;;;;;;;;;;;;;;;21.00;47.52;95332.78;10444573;28;2893;-41
2022/09/17 10:51:19;;;;;;;;;;;;;;;21.00;47.70;95334.63;10444397;28;2894;-43
2022/09/17 10:56:26;;;;;;;;;;;;;;;21.00;47.54;95335.41;10464826;28;2868;-44
2022/09/17 11:01:32;;;;;;;;;;;;;;;21.00;47.37;95332.78;10434391;28;3022;-49
2022/09/17 11:06:49;;;;;;;;;;;;;;;21.00;47.55;95332.78;10429716;28;2982;-48
2022/09/17 11:11:59;;;;;;;;;;;;;;;21.01;47.39;95339.63;10471554;28;2904;-48
2022/09/17 11:17:01;;;;;;;;;;;;;;;21.03;47.30;95332.25;10438837;28;2836;-48
2022/09/17 11:22:16;;;;;;;;;;;;;;;21.05;47.13;95329.31;10435873;28;2918;-48
2022/09/17 11:27:22;;;;;;;;;;;;;;;21.03;47.46;95321.72;10429972;28;2871;-49
2022/09/17 11:32:22;;;;;;;;;;;;;;;21.04;47.49;95344.34;10468228;28;2977;-48
2022/09/17 11:37:26;;;;;;;;;;;;;;;21.04;47.42;95335.66;10433255;28;2923;-48
2022/09/17 11:42:31;;;;;;;;;;;;;;;21.02;47.50;95335.94;10468120;28;2894;-48
2022/09/17 11:47:33;;;;;;;;;;;;;;;21.04;47.45;95340.94;10438730;28;2894;-48
2022/09/17 11:52:40;;;;;;;;;;;;;;;21.08;47.36;95325.34;10436319;28;3263;-48
2022/09/17 11:57:41;;;;;;;;;;;;;;;21.10;47.20;95323.19;10439445;28;2885;-48
2022/09/17 12:02:45;;;;;;;;;;;;;;;21.09;47.04;95314.50;10433922;28;2853;-48
2022/09/17 12:07:48;;;;;;;;;;;;;;;21.06;47.30;95309.81;10431750;28;2987;-48
2022/09/17 12:12:55;;;;;;;;;;;;;;;21.04;47.58;95307.44;10436869;28;2851;-47
2022/09/17 12:17:56;;;;;;;;;;;;;;;21.03;47.31;95313.00;10465533;28;3032;-48
2022/09/17 12:22:57;;;;;;;;;;;;;;;21.02;47.44;95304.31;10435062;28;2840;-48
2022/09/17 12:27:58;;;;;;;;;;;;;;;21.10;47.27;95300.25;10470370;28;2894;-48
2022/09/17 12:33:02;;;;;;;;;;;;;;;21.14;47.07;95282.00;10434971;28;2827;-49
2022/09/17 12:38:05;;;;;;;;;;;;;;;21.14;47.17;95287.28;10435338;28;2902;-48
2022/09/17 12:43:05;;;;;;;;;;;;;;;21.14;47.05;95288.06;10442415;28;2922;-49
2022/09/17 12:48:05;;;;;;;;;;;;;;;21.15;47.15;95296.75;10437504;28;2912;-41
2022/09/17 12:53:15;;;;;;;;;;;;;;;21.15;47.28;95296.75;10435678;28;2874;-40
2022/09/17 12:58:15;;;;;;;;;;;;;;;21.14;47.27;95300.47;10437395;28;2875;-41
2022/09/17 13:03:23;;;;;;;;;;;;;;;21.10;47.20;95291.56;10426056;28;2875;-49
2022/09/17 13:08:27;;;;;;;;;;;;;;;21.08;47.35;95287.34;10434213;28;3081;-48
2022/09/17 13:13:27;;;;;;;;;;;;;;;21.08;46.99;95280.53;10434302;28;2821;-48
2022/09/17 13:18:33;;;;;;;;;;;;;;;21.08;47.03;95275.25;10436741;28;2835;-49
2022/09/17 13:23:38;;;;;;;;;;;;;;;21.13;46.97;95267.25;10442282;28;2887;-48
2022/09/17 13:28:40;;;;;;;;;;;;;;;21.16;46.78;95256.16;10435625;28;2906;-48
2022/09/17 13:33:50;;;;;;;;;;;;;;;21.17;46.96;95252.44;10437319;28;2860;-48
2022/09/17 13:38:50;;;;;;;;;;;;;;;21.16;47.01;95261.44;10445411;28;3001;-47
2022/09/17 13:43:53;;;;;;;;;;;;;;;21.14;47.01;95274.09;10446673;28;2940;-48
2022/09/17 13:49:10;;;;;;;;;;;;;;;21.13;46.89;95283.06;10445954;28;2894;-48
2022/09/17 13:54:10;;;;;;;;;;;;;;;21.15;46.78;95286.19;10439432;28;2952;-48
2022/09/17 13:59:18;;;;;;;;;;;;;;;21.16;46.61;95266.69;10444184;28;2994;-48
2022/09/17 14:04:30;;;;;;;;;;;;;;;21.17;46.81;95278.78;10438883;28;3142;-48
2022/09/17 14:09:34;;;;;;;;;;;;;;;21.20;46.92;95272.97;10440827;28;2884;-46
2022/09/17 14:14:46;;;;;;;;;;;;;;;21.20;46.89;95270.31;10466028;28;2865;-48
2022/09/17 14:19:49;;;;;;;;;;;;;;;21.21;46.43;95274.50;10467890;28;2954;-48
2022/09/17 14:24:53;;;;;;;;;;;;;;;21.20;46.67;95278.22;10432380;28;3012;-48
2022/09/17 14:30:06;;;;;;;;;;;;;;;21.19;46.68;95274.81;10439069;28;2891;-48
2022/09/17 14:35:25;;;;;;;;;;;;;;;21.18;46.77;95278.53;10434596;28;2883;-48
2022/09/17 14:40:26;;;;;;;;;;;;;;;21.16;46.90;95279.88;10434529;28;2916;-49
2022/09/17 14:45:30;;;;;;;;;;;;;;;21.15;47.08;95275.66;10442891;28;2939;-48
2022/09/17 14:50:31;;;;;;;;;;;;;;;21.13;46.80;95275.94;10441630;28;2983;-41
2022/09/17 14:55:31;;;;;;;;;;;;;;;21.13;46.92;95275.16;10433320;28;2855;-42
2022/09/17 15:00:35;;;;;;;;;;;;;;;21.11;47.03;95283.38;10442447;28;2931;-41
2022/09/17 15:05:41;;;;;;;;;;;;;;;21.11;46.78;95290.47;10429018;28;2859;-41
2022/09/17 15:10:48;;;;;;;;;;;;;;;21.10;46.90;95296.84;10427858;28;2848;-41
2022/09/17 15:15:52;;;;;;;;;;;;;;;21.10;46.50;95310.00;10443458;28;2874;-41
2022/09/17 15:20:52;;;;;;;;;;;;;;;21.09;46.90;95319.75;10473887;28;3202;-41
2022/09/17 15:25:53;;;;;;;;;;;;;;;21.06;46.47;95318.47;10430490;28;2977;-41
2022/09/17 15:30:54;;;;;;;;;;;;;;;21.06;46.50;95330.91;10435965;28;2886;-41
2022/09/17 15:35:58;;;;;;;;;;;;;;;21.04;46.63;95328.53;10439305;28;2868;-41
2022/09/17 15:41:17;;;;;;;;;;;;;;;21.03;46.87;95334.88;10461803;28;2867;-41
2022/09/17 15:46:28;;;;;;;;;;;;;;;21.02;46.70;95335.94;10431761;28;2861;-41
2022/09/17 15:51:28;;;;;;;;;;;;;;;21.00;46.58;95343.31;10433942;28;2902;-41
2022/09/17 15:56:36;;;;;;;;;;;;;;;21.00;46.79;95345.94;10436441;28;3231;-41
2022/09/17 16:01:38;;;;;;;;;;;;;;;20.99;46.95;95343.59;10465773;28;2920;-48
2022/09/17 16:06:43;;;;;;;;;;;;;;;20.99;46.54;95340.97;10436429;28;2915;-49
2022/09/17 16:11:44;;;;;;;;;;;;;;;20.98;46.43;95328.84;10467658;28;2941;-48
2022/09/17 16:16:45;;;;;;;;;;;;;;;20.96;46.63;95350.22;10431504;28;2952;-48
2022/09/17 16:21:45;;;;;;;;;;;;;;;20.95;46.70;95351.31;10431514;28;2855;-48
2022/09/17 16:26:45;;;;;;;;;;;;;;;20.94;46.33;95349.72;10462974;28;2884;-48
2022/09/17 16:31:46;;;;;;;;;;;;;;;20.92;46.47;95349.22;10434653;28;2816;-48
2022/09/17 16:36:46;;;;;;;;;;;;;;;20.92;46.33;95351.88;10464134;28;2880;-48
2022/09/17 16:41:46;;;;;;;;;;;;;;;20.93;46.41;95360.56;10430110;28;2804;-48
2022/09/17 16:46:46;;;;;;;;;;;;;;;20.92;46.31;95364.25;10433915;28;2925;-48
2022/09/17 16:51:47;;;;;;;;;;;;;;;20.93;46.45;95374.53;10434079;28;2867;-41
2022/09/17 16:56:47;;;;;;;;;;;;;;;20.94;46.86;95378.72;10445219;28;3024;-42
2022/09/17 17:01:49;;;;;;;;;;;;;;;20.96;46.41;95387.13;10444950;28;2906;-40
2022/09/17 17:06:49;;;;;;;;;;;;;;;20.97;46.38;95386.06;10445344;28;2923;-42
2022/09/17 17:11:50;;;;;;;;;;;;;;;20.93;46.50;95385.06;10447139;28;2876;-42
2022/09/17 17:17:01;;;;;;;;;;;;;;;20.87;46.33;95391.47;10442640;28;3012;-44
2022/09/17 17:22:01;;;;;;;;;;;;;;;20.84;46.38;95391.22;10456427;28;2874;-44
2022/09/17 17:27:02;;;;;;;;;;;;;;;20.78;46.23;95395.00;10445749;28;2897;-44
2022/09/17 17:32:03;;;;;;;;;;;;;;;20.73;46.10;95392.44;10450896;28;2887;-45
2022/09/17 17:37:03;;;;;;;;;;;;;;;20.70;45.95;95391.16;10444205;28;3232;-44
2022/09/17 17:42:03;;;;;;;;;;;;;;;20.74;46.64;95401.91;10454464;28;2884;-43
2022/09/17 17:47:05;;;;;;;;;;;;;;;20.77;46.84;95404.75;10456362;28;2911;-43
2022/09/17 17:52:05;;;;;;;;;;;;;;;20.78;47.03;95403.69;10460714;28;2863;-43
2022/09/17 17:57:06;;;;;;;;;;;;;;;20.76;46.80;95421.63;10461326;28;2886;-43
2022/09/17 18:02:06;;;;;;;;;;;;;;;20.69;46.19;95423.81;10460026;28;2875;-42
2022/09/17 18:07:06;;;;;;;;;;;;;;;20.68;46.49;95430.16;10459552;28;2840;-43
2022/09/17 18:12:07;;;;;;;;;;;;;;;20.69;46.81;95458.03;10456206;28;2886;-43
2022/09/17 18:17:07;;;;;;;;;;;;;;;20.71;46.88;95455.91;10455380;28;2853;-42
2022/09/17 18:22:07;;;;;;;;;;;;;;;20.69;47.03;95458.03;10450492;28;2878;-42
2022/09/17 18:27:07;;;;;;;;;;;;;;;20.70;46.76;95470.16;10452663;28;2898;-42
2022/09/17 18:32:08;;;;;;;;;;;;;;;20.68;46.74;95485.47;10445405;28;2915;-43
2022/09/17 18:37:08;;;;;;;;;;;;;;;20.68;46.81;95480.19;10434430;28;2920;-43
2022/09/17 18:42:08;;;;;;;;;;;;;;;20.68;47.10;95482.03;10440765;28;2863;-44
2022/09/17 18:47:08;;;;;;;;;;;;;;;20.67;46.88;95485.75;10441245;28;2942;-43
2022/09/17 18:52:09;;;;;;;;;;;;;;;20.66;46.73;95487.59;10437498;28;2936;-45
2022/09/17 18:57:09;;;;;;;;;;;;;;;20.66;46.75;95490.22;10438365;28;3113;-44
2022/09/17 19:02:13;;;;;;;;;;;;;;;20.67;46.92;95491.78;10465033;28;2859;-46
2022/09/17 19:07:13;;;;;;;;;;;;;;;20.65;46.59;95496.53;10440205;28;2867;-43
2022/09/17 19:12:13;;;;;;;;;;;;;;;20.64;46.55;95495.00;10436432;28;2947;-45
2022/09/17 19:17:14;;;;;;;;;;;;;;;20.65;46.89;95501.06;10440718;28;3032;-43
2022/09/17 19:22:14;;;;;;;;;;;;;;;20.64;46.58;95492.34;10435933;28;2924;-44
2022/09/17 19:27:14;;;;;;;;;;;;;;;20.62;46.76;95486.59;10444179;28;2889;-44
2022/09/17 19:32:15;;;;;;;;;;;;;;;20.59;46.90;95489.75;10430734;28;3046;-44
2022/09/17 19:37:17;;;;;;;;;;;;;;;20.61;46.97;95479.72;10427412;28;3050;-44
2022/09/17 19:42:17;;;;;;;;;;;;;;;20.61;46.63;95492.13;10438325;28;2906;-45
2022/09/17 19:47:17;;;;;;;;;;;;;;;20.60;46.82;95485.28;10437437;28;2867;-46
2022/09/17 19:52:18;;;;;;;;;;;;;;;20.58;46.78;95485.56;10438393;28;2894;-45
2022/09/17 19:57:18;;;;;;;;;;;;;;;20.56;46.79;95485.06;10424083;28;2902;-43
2022/09/17 20:02:18;;;;;;;;;;;;;;;20.56;46.71;95473.75;10437319;28;2874;-45
2022/09/17 20:07:20;;;;;;;;;;;;;;;20.55;46.50;95470.31;10433394;28;2827;-45
2022/09/17 20:12:20;;;;;;;;;;;;;;;20.55;46.67;95467.69;10429164;28;2895;-43
2022/09/17 20:17:20;;;;;;;;;;;;;;;20.54;46.57;95476.66;10429528;28;2872;-44
2022/09/17 20:22:21;;;;;;;;;;;;;;;20.54;46.43;95481.13;10433074;28;2828;-44
2022/09/17 20:27:21;;;;;;;;;;;;;;;20.53;46.56;95490.88;10430153;28;2946;-45
2022/09/17 20:32:21;;;;;;;;;;;;;;;20.52;46.69;95467.47;10431961;28;3189;-45
2022/09/17 20:37:21;;;;;;;;;;;;;;;20.52;46.48;95481.44;10431714;28;2911;-43
2022/09/17 20:42:22;;;;;;;;;;;;;;;20.49;46.25;95476.72;10442772;28;2807;-43
2022/09/17 20:47:22;;;;;;;;;;;;;;;20.51;46.31;95479.06;10447901;28;2991;-46
2022/09/17 20:52:22;;;;;;;;;;;;;;;20.51;46.61;95485.13;10442271;28;3093;-44
2022/09/17 20:57:23;;;;;;;;;;;;;;;20.50;46.45;95496.72;10439763;28;2880;-44
2022/09/17 21:02:24;;;;;;;;;;;;;;;20.49;46.57;95492.50;10442306;28;2860;-43
2022/09/17 21:07:25;;;;;;;;;;;;;;;20.48;46.62;95503.31;10445776;28;3030;-44
2022/09/17 21:12:26;;;;;;;;;;;;;;;20.47;46.56;95507.00;10438549;28;2906;-44
2022/09/17 21:17:26;;;;;;;;;;;;;;;20.46;46.41;95511.50;10443560;28;2898;-43
2022/09/17 21:22:26;;;;;;;;;;;;;;;20.47;46.62;95507.00;10437281;28;2934;-44
2022/09/17 21:27:29;;;;;;;;;;;;;;;20.45;46.45;95509.91;10442203;28;2875;-45
2022/09/17 21:32:29;;;;;;;;;;;;;;;20.43;46.42;95519.94;10437285;28;2844;-45
2022/09/17 21:37:29;;;;;;;;;;;;;;;20.41;46.39;95516.81;10431471;28;2882;-43
2022/09/17 21:42:31;;;;;;;;;;;;;;;20.42;46.38;95514.97;10437563;28;2938;-43
2022/09/17 21:47:32;;;;;;;;;;;;;;;20.41;46.50;95508.13;10439388;28;2898;-45
2022/09/17 21:52:33;;;;;;;;;;;;;;;20.40;46.26;95499.47;10442696;28;2884;-43
2022/09/17 21:57:33;;;;;;;;;;;;;;;20.40;46.54;95503.94;10437769;28;2813;-45
2022/09/17 22:02:34;;;;;;;;;;;;;;;20.39;46.33;95500.50;10433676;28;2800;-44
2022/09/17 22:07:35;;;;;;;;;;;;;;;20.38;46.61;95504.19;10434393;28;2898;-44
2022/09/17 22:12:35;;;;;;;;;;;;;;;20.37;46.58;95497.38;10430522;28;2800;-43
2022/09/17 22:17:35;;;;;;;;;;;;;;;20.37;46.63;95502.63;10434605;28;3251;-46
2022/09/17 22:22:35;;;;;;;;;;;;;;;20.36;46.55;95511.56;10434605;28;2814;-46
2022/09/17 22:27:36;;;;;;;;;;;;;;;20.36;46.74;95516.06;10426026;28;2829;-45
2022/09/17 22:32:36;;;;;;;;;;;;;;;20.36;46.45;95521.34;10431095;28;2956;-45
2022/09/17 22:37:36;;;;;;;;;;;;;;;20.35;46.53;95525.81;10428790;28;3197;-45
2022/09/17 22:42:36;;;;;;;;;;;;;;;20.33;46.68;95514.78;10441496;28;2859;-45
2022/09/17 22:47:38;;;;;;;;;;;;;;;20.34;46.35;95510.31;10436032;28;2871;-45
2022/09/17 22:52:39;;;;;;;;;;;;;;;20.33;46.49;95514.78;10438980;28;3015;-44
2022/09/17 22:57:39;;;;;;;;;;;;;;;20.32;46.45;95515.81;10438294;28;2879;-44
2022/09/17 23:02:40;;;;;;;;;;;;;;;20.32;46.37;95520.31;10438030;28;2896;-44
2022/09/17 23:07:40;;;;;;;;;;;;;;;20.31;46.67;95524.81;10465465;28;2859;-45
2022/09/17 23:12:41;;;;;;;;;;;;;;;20.31;46.60;95524.00;10436066;28;2820;-43
2022/09/17 23:17:41;;;;;;;;;;;;;;;20.29;46.49;95532.19;10436678;28;2951;-43
2022/09/17 23:22:42;;;;;;;;;;;;;;;20.28;46.55;95541.94;10439393;28;2856;-44
2022/09/17 23:27:42;;;;;;;;;;;;;;;20.27;46.48;95545.63;10426522;28;2897;-43
2022/09/17 23:32:42;;;;;;;;;;;;;;;20.27;46.32;95542.22;10434623;28;2835;-43
2022/09/17 23:37:53;;;;;;;;;;;;;;;20.28;46.42;95556.94;10434254;28;2872;-43
2022/09/17 23:42:53;;;;;;;;;;;;;;;20.26;46.49;95556.41;10423969;28;2844;-45
2022/09/17 23:47:54;;;;;;;;;;;;;;;20.26;46.46;95551.94;10435552;28;2961;-44
2022/09/17 23:52:55;;;;;;;;;;;;;;;20.26;46.42;95556.41;10438930;28;2898;-43
2022/09/17 23:57:55;;;;;;;;;;;;;;;20.25;46.28;95562.75;10435227;28;3208;-45
